Time;durP1;ratioP1;P1;durP2;ratioP2;P2;SDS_P1;SDS_P2;PMS_P1;PMS_P2;Temp;Humidity;BMP_temperature;BMP_pressure;BME280_temperature;BME280_humidity;BME280_pressure;Samples;Min_cycle;Max_cycle;Signal;HPM_P1;HPM_P2
2023/12/20 00:00:18;;;;;;;9.90;6.00;;;;;;;7.24;62.06;98419.81;109609;1251;59843;-73
2023/12/20 00:03:05;;;;;;;12.10;6.70;;;;;;;7.28;61.92;98413.42;109557;1251;60949;-73
2023/12/20 00:05:32;;;;;;;9.40;5.90;;;;;;;7.28;61.66;98403.00;109591;1251;67581;-73
2023/12/20 00:07:59;;;;;;;9.50;5.70;;;;;;;7.28;61.69;98403.89;109602;1250;61058;-73
2023/12/20 00:10:25;;;;;;;8.20;5.60;;;;;;;7.28;60.76;98401.73;109605;1251;65143;-73
2023/12/20 00:12:52;;;;;;;8.20;5.70;;;;;;;7.32;60.97;98399.90;109538;1251;59870;-73
2023/12/20 00:15:18;;;;;;;9.40;5.90;;;;;;;7.32;60.72;98392.66;109584;1251;59640;-73
2023/12/20 00:17:45;;;;;;;8.20;4.80;;;;;;;7.31;60.35;98385.80;109636;1251;67672;-73
2023/12/20 00:20:12;;;;;;;7.60;4.70;;;;;;;7.35;59.89;98387.88;109612;1250;60180;-73
2023/12/20 00:22:38;;;;;;;7.90;4.90;;;;;;;7.39;59.46;98384.40;109574;1251;62782;-73
2023/12/20 00:25:05;;;;;;;8.10;4.70;;;;;;;7.42;58.95;98377.14;109594;1251;59742;-73
2023/12/20 00:27:32;;;;;;;7.90;5.10;;;;;;;7.44;59.59;98372.10;109595;1251;59832;-72
2023/12/20 00:29:58;;;;;;;8.20;5.20;;;;;;;7.41;59.89;98372.80;109602;1251;68117;-73
2023/12/20 00:32:25;;;;;;;6.90;4.60;;;;;;;7.36;59.59;98373.45;109662;1251;61070;-73
2023/12/20 00:34:51;;;;;;;7.00;4.30;;;;;;;7.36;59.29;98366.58;109578;1251;65127;-73
2023/12/20 00:37:18;;;;;;;8.30;4.60;;;;;;;7.38;58.97;98374.08;109595;1251;59732;-73
2023/12/20 00:39:44;;;;;;;6.20;4.20;;;;;;;7.37;59.27;98374.13;109569;1251;59706;-72
2023/12/20 00:42:11;;;;;;;6.40;4.50;;;;;;;7.36;59.00;98374.73;109607;1251;67845;-72
2023/12/20 00:44:38;;;;;;;6.60;4.20;;;;;;;7.38;58.84;98375.48;109619;1251;61145;-73
2023/12/20 00:47:05;;;;;;;5.80;4.00;;;;;;;7.38;59.07;98367.55;109592;1251;65284;-73
2023/12/20 00:49:31;;;;;;;8.80;4.50;;;;;;;7.37;58.87;98369.70;109558;1251;59728;-72
2023/12/20 00:51:58;;;;;;;6.60;4.60;;;;;;;7.38;58.44;98372.42;109616;1251;59956;-72
2023/12/20 00:54:24;;;;;;;8.40;5.30;;;;;;;7.41;58.51;98370.48;109581;1251;66734;-72
2023/12/20 00:56:51;;;;;;;9.90;5.70;;;;;;;7.43;58.12;98373.40;109581;1251;60018;-72
2023/12/20 00:59:18;;;;;;;8.80;5.80;;;;;;;7.44;57.83;98372.05;109590;1251;64016;-72
2023/12/20 01:01:45;;;;;;;6.40;4.50;;;;;;;7.42;58.32;98369.89;109580;1251;60065;-72
2023/12/20 01:04:11;;;;;;;7.10;4.60;;;;;;;7.37;58.31;98364.73;109641;1251;59821;-72
2023/12/20 01:06:38;;;;;;;7.80;4.90;;;;;;;7.34;58.37;98358.95;109590;1251;66718;-72
2023/12/20 01:09:05;;;;;;;9.60;6.70;;;;;;;7.31;58.58;98353.67;109630;1250;59975;-71
2023/12/20 01:11:31;;;;;;;7.40;5.20;;;;;;;7.28;58.70;98353.66;109528;1251;63983;-72
2023/12/20 01:13:58;;;;;;;8.10;4.80;;;;;;;7.23;58.86;98349.56;109564;1251;59817;-72
2023/12/20 01:16:24;;;;;;;7.80;5.50;;;;;;;7.19;58.58;98346.63;109629;1251;59886;-73
2023/12/20 01:18:51;;;;;;;8.20;5.20;;;;;;;7.18;58.58;98335.90;109616;1251;67805;-72
2023/12/20 01:21:17;;;;;;;8.10;5.70;;;;;;;7.19;58.86;98336.95;109568;1251;61078;-72
2023/12/20 01:23:44;;;;;;;9.70;5.60;;;;;;;7.15;58.77;98332.77;109583;1251;65052;-72
2023/12/20 01:26:11;;;;;;;9.80;6.30;;;;;;;7.12;58.69;98328.87;109555;1251;59848;-72
2023/12/20 01:28:38;;;;;;;8.20;5.40;;;;;;;7.11;58.68;98326.33;109661;1251;59874;-72
2023/12/20 01:31:04;;;;;;;9.60;5.80;;;;;;;7.09;58.93;98321.85;109565;1251;67819;-72
2023/12/20 01:33:31;;;;;;;9.40;5.80;;;;;;;7.05;58.94;98309.35;109625;1251;60124;-72
2023/12/20 01:35:58;;;;;;;13.00;7.20;;;;;;;7.01;59.13;98300.77;109582;1251;63986;-72
2023/12/20 01:38:24;;;;;;;8.90;6.10;;;;;;;6.98;59.17;98291.94;109545;1251;59816;-72
2023/12/20 01:40:51;;;;;;;12.30;7.10;;;;;;;6.95;59.30;98291.42;109398;1251;59987;-72
2023/12/20 01:43:17;;;;;;;7.60;5.00;;;;;;;6.92;59.31;98291.98;109582;1251;67766;-73
2023/12/20 01:45:44;;;;;;;7.10;4.70;;;;;;;6.89;59.52;98291.12;109627;1250;60154;-73
2023/12/20 01:48:11;;;;;;;7.90;4.60;;;;;;;6.88;59.53;98288.75;109586;1251;65151;-73
2023/12/20 01:50:38;;;;;;;8.50;4.60;;;;;;;6.86;59.64;98290.65;109573;1251;59835;-73
2023/12/20 01:53:07;;;;;;;8.60;5.10;;;;;;;6.81;59.82;98287.02;109609;1251;59908;-73
2023/12/20 01:55:36;;;;;;;8.00;5.20;;;;;;;6.76;59.92;98292.32;109582;1251;67037;-73
2023/12/20 01:58:03;;;;;;;9.20;5.50;;;;;;;6.71;60.01;98284.36;109583;1252;60992;-73
2023/12/20 02:00:30;;;;;;;7.90;5.30;;;;;;;6.66;60.17;98267.89;109578;1251;62762;-73
2023/12/20 02:03:01;;;;;;;9.20;5.20;;;;;;;6.61;60.28;98266.61;109626;1251;59750;-73
2023/12/20 02:05:34;;;;;;;8.40;5.50;;;;;;;6.58;60.42;98269.40;109618;1251;59796;-73
2023/12/20 02:08:01;;;;;;;9.90;6.20;;;;;;;6.56;60.51;98273.59;109606;1251;68071;-73
2023/12/20 02:10:29;;;;;;;10.50;6.70;;;;;;;6.55;60.53;98274.38;109619;1251;61631;-73
2023/12/20 02:12:55;;;;;;;10.40;6.50;;;;;;;6.56;60.50;98267.27;109566;1251;64129;-73
2023/12/20 02:15:22;;;;;;;10.40;5.90;;;;;;;6.57;60.61;98257.52;109569;1251;59737;-73
2023/12/20 02:17:49;;;;;;;9.40;6.10;;;;;;;6.56;60.64;98251.72;109408;1251;60140;-73
2023/12/20 02:20:16;;;;;;;11.10;5.90;;;;;;;6.55;60.72;98249.66;109592;1251;67789;-73
2023/12/20 02:22:42;;;;;;;9.40;6.40;;;;;;;6.53;60.80;98251.16;109261;1250;61222;-73
2023/12/20 02:25:09;;;;;;;9.10;6.00;;;;;;;6.51;60.62;98247.44;109591;1251;65258;-73
2023/12/20 02:27:35;;;;;;;8.80;6.20;;;;;;;6.50;60.66;98251.59;109593;1251;59714;-73
2023/12/20 02:30:03;;;;;;;7.20;5.40;;;;;;;6.50;60.62;98255.66;109578;1251;59920;-73
2023/12/20 02:32:30;;;;;;;6.00;4.90;;;;;;;6.49;60.99;98258.01;109600;1251;67800;-74
2023/12/20 02:34:57;;;;;;;5.50;4.70;;;;;;;6.47;61.08;98261.13;109617;1251;60003;-74
2023/12/20 02:37:24;;;;;;;6.00;5.40;;;;;;;6.46;61.05;98262.08;109521;1251;65047;-73
2023/12/20 02:39:50;;;;;;;5.60;4.50;;;;;;;6.45;61.18;98259.81;109580;1251;59918;-73
2023/12/20 02:42:17;;;;;;;6.70;4.60;;;;;;;6.45;61.14;98257.34;109509;1251;59854;-73
2023/12/20 02:44:44;;;;;;;7.50;5.60;;;;;;;6.46;61.30;98261.35;109407;1253;67212;-73
2023/12/20 02:47:11;;;;;;;7.10;5.40;;;;;;;6.47;61.45;98272.23;109534;1252;59988;-73
2023/12/20 02:49:38;;;;;;;5.60;4.90;;;;;;;6.47;61.51;98268.86;109459;1252;65098;-73
2023/12/20 02:52:04;;;;;;;7.20;5.70;;;;;;;6.49;61.49;98256.25;109464;1252;59733;-72
2023/12/20 02:54:31;;;;;;;6.30;5.50;;;;;;;6.50;61.62;98253.33;109592;1252;59915;-72
2023/12/20 02:56:57;;;;;;;6.50;5.30;;;;;;;6.50;61.67;98248.90;109466;1252;67820;-73
2023/12/20 02:59:24;;;;;;;5.50;4.90;;;;;;;6.51;61.75;98251.33;109477;1253;60952;-73
2023/12/20 03:01:50;;;;;;;5.40;4.70;;;;;;;6.50;61.81;98251.38;109503;1252;65271;-72
2023/12/20 03:04:17;;;;;;;6.80;6.00;;;;;;;6.51;61.77;98252.39;109500;1252;59796;-72
2023/12/20 03:06:44;;;;;;;7.80;5.40;;;;;;;6.54;61.85;98256.64;109514;1252;60017;-72
2023/12/20 03:09:10;;;;;;;7.20;5.80;;;;;;;6.56;61.92;98258.09;109528;1252;67815;-72
2023/12/20 03:11:37;;;;;;;8.20;6.00;;;;;;;6.56;62.10;98255.56;109524;1252;61114;-72
2023/12/20 03:14:03;;;;;;;9.60;6.50;;;;;;;6.56;62.19;98253.10;109472;1252;65134;-72
2023/12/20 03:16:31;;;;;;;6.90;5.90;;;;;;;6.56;62.33;98249.90;109501;1253;59836;-72
2023/12/20 03:18:57;;;;;;;6.10;5.50;;;;;;;6.57;62.49;98257.62;109524;1252;59678;-72
2023/12/20 03:21:24;;;;;;;7.20;5.10;;;;;;;6.58;62.67;98257.42;109464;1253;66596;-73
2023/12/20 03:23:50;;;;;;;6.80;5.10;;;;;;;6.58;62.73;98253.16;109561;1252;61024;-73
2023/12/20 03:26:17;;;;;;;5.80;5.20;;;;;;;6.58;62.78;98249.98;109502;1251;64103;-73
2023/12/20 03:28:43;;;;;;;6.50;5.30;;;;;;;6.59;62.80;98247.62;109460;1252;60070;-73
2023/12/20 03:31:10;;;;;;;6.60;5.20;;;;;;;6.60;62.96;98251.83;109502;1252;59685;-73
2023/12/20 03:33:37;;;;;;;6.40;5.40;;;;;;;6.60;63.21;98251.27;109508;1252;67873;-72
2023/12/20 03:36:04;;;;;;;7.70;5.00;;;;;;;6.60;63.58;98257.84;109456;1253;61205;-73
2023/12/20 03:38:30;;;;;;;7.20;5.00;;;;;;;6.57;64.16;98260.11;109315;1256;65103;-73
2023/12/20 03:40:57;;;;;;;7.90;5.50;;;;;;;6.54;64.61;98256.64;109496;1253;59795;-72
2023/12/20 03:43:23;;;;;;;7.50;6.00;;;;;;;6.50;65.18;98255.96;109600;1251;59836;-73
2023/12/20 03:45:50;;;;;;;7.60;5.80;;;;;;;6.45;65.59;98248.70;109597;1251;66801;-73
2023/12/20 03:48:17;;;;;;;9.10;6.30;;;;;;;6.40;66.04;98250.95;109600;1251;61030;-73
2023/12/20 03:50:43;;;;;;;8.20;6.10;;;;;;;6.35;66.51;98255.64;109566;1251;65327;-73
2023/12/20 03:53:10;;;;;;;8.90;6.40;;;;;;;6.30;67.08;98261.23;109579;1251;60225;-73
2023/12/20 03:55:36;;;;;;;7.60;5.50;;;;;;;6.25;67.65;98266.67;109553;1251;108099;-73
2023/12/20 03:58:03;;;;;;;9.50;6.20;;;;;;;6.20;68.18;98266.80;109583;1251;67875;-73
2023/12/20 04:00:30;;;;;;;7.90;6.10;;;;;;;6.16;69.13;98265.84;109619;1251;60195;-73
2023/12/20 04:02:57;;;;;;;8.30;6.40;;;;;;;6.10;70.02;98268.11;109565;1250;73005;-73
2023/12/20 04:05:23;;;;;;;8.40;6.10;;;;;;;6.04;70.64;98274.13;109554;1251;59733;-73
2023/12/20 04:07:50;;;;;;;8.30;6.60;;;;;;;6.00;71.45;98279.67;109387;1251;59813;-73
2023/12/20 04:10:16;;;;;;;8.60;6.30;;;;;;;5.94;72.76;98281.77;109626;1251;66777;-73
2023/12/20 04:12:43;;;;;;;7.90;6.00;;;;;;;5.88;74.22;98278.05;109617;1250;61584;-73
2023/12/20 04:15:11;;;;;;;7.40;5.30;;;;;;;5.79;75.68;98271.92;109596;1251;65112;-73
2023/12/20 04:17:38;;;;;;;7.70;6.20;;;;;;;5.69;77.79;98275.30;109367;1251;59843;-73
2023/12/20 04:20:05;;;;;;;6.90;5.30;;;;;;;5.59;79.98;98282.23;108823;1255;1002361;-74
2023/12/20 04:22:32;;;;;;;6.10;5.20;;;;;;;5.49;82.16;98280.33;109339;1251;67035;-73
2023/12/20 04:24:58;;;;;;;7.40;6.20;;;;;;;5.40;83.00;98277.13;109606;1251;60291;-74
2023/12/20 04:27:25;;;;;;;7.80;5.40;;;;;;;5.35;86.30;98280.62;109575;1251;65239;-73
2023/12/20 04:29:51;;;;;;;7.20;6.20;;;;;;;5.29;89.37;98283.78;109596;1251;59737;-73
2023/12/20 04:32:18;;;;;;;7.90;5.50;;;;;;;5.24;90.41;98286.35;109552;1251;59872;-73
2023/12/20 04:34:44;;;;;;;7.00;5.70;;;;;;;5.20;91.42;98281.99;109603;1250;67840;-73
2023/12/20 04:37:12;;;;;;;7.00;5.40;;;;;;;5.16;93.62;98283.11;109578;1251;60030;-73
2023/12/20 04:39:38;;;;;;;7.90;5.70;;;;;;;5.12;97.69;98281.23;109573;1251;65058;-73
2023/12/20 04:42:05;;;;;;;7.30;5.50;;;;;;;5.08;98.59;98277.90;109539;1251;59799;-73
2023/12/20 04:44:32;;;;;;;6.80;5.40;;;;;;;5.03;99.84;98276.76;109602;1251;59740;-73
2023/12/20 04:46:58;;;;;;;6.70;6.00;;;;;;;4.99;100.00;98275.77;109568;1251;66843;-72
2023/12/20 04:49:25;;;;;;;5.60;4.70;;;;;;;4.95;100.00;98278.44;109626;1251;59969;-72
2023/12/20 04:51:51;;;;;;;8.20;5.00;;;;;;;4.92;100.00;98279.14;109592;1251;65030;-73
2023/12/20 04:54:18;;;;;;;6.80;4.80;;;;;;;4.89;100.00;98277.19;109582;1251;59754;-73
2023/12/20 04:56:44;;;;;;;6.40;5.10;;;;;;;4.85;100.00;98273.37;109608;1251;59742;-73
2023/12/20 04:59:11;;;;;;;6.20;4.70;;;;;;;4.80;100.00;98270.13;109599;1251;67828;-73
2023/12/20 05:01:38;;;;;;;5.70;4.80;;;;;;;4.75;100.00;98261.80;109586;1251;60575;-73
2023/12/20 05:04:05;;;;;;;8.70;5.40;;;;;;;4.72;100.00;98260.73;109542;1251;65254;-73
2023/12/20 05:06:31;;;;;;;5.50;4.50;;;;;;;4.70;100.00;98260.14;109593;1250;59684;-73
2023/12/20 05:08:58;;;;;;;6.50;5.00;;;;;;;4.66;100.00;98262.10;109414;1251;59992;-73
2023/12/20 05:11:24;;;;;;;8.20;5.50;;;;;;;4.65;100.00;98263.04;109604;1251;66682;-73
2023/12/20 05:13:51;;;;;;;6.40;5.20;;;;;;;4.65;100.00;98259.38;109478;1251;61630;-73
2023/12/20 05:16:18;;;;;;;6.50;5.30;;;;;;;4.63;100.00;98256.30;109313;1251;64088;-72
2023/12/20 05:18:45;;;;;;;5.90;5.30;;;;;;;4.59;100.00;98253.34;109568;1251;59780;-73
2023/12/20 05:21:12;;;;;;;7.00;5.30;;;;;;;4.55;100.00;98254.95;109617;1251;59823;-71
2023/12/20 05:23:38;;;;;;;8.10;5.90;;;;;;;4.52;100.00;98255.98;109608;1251;67781;-71
2023/12/20 05:26:05;;;;;;;7.90;5.50;;;;;;;4.51;100.00;98253.27;109572;1251;61101;-72
2023/12/20 05:28:31;;;;;;;6.50;5.00;;;;;;;4.49;100.00;98253.36;108812;1251;1002899;-72
2023/12/20 05:30:58;;;;;;;7.30;5.10;;;;;;;4.48;100.00;98247.80;109542;1251;59748;-72
2023/12/20 05:33:25;;;;;;;5.40;4.60;;;;;;;4.47;100.00;98245.90;109568;1251;59803;-72
2023/12/20 05:35:51;;;;;;;7.10;5.80;;;;;;;4.46;100.00;98245.97;109599;1250;68712;-72
2023/12/20 05:38:18;;;;;;;7.30;5.80;;;;;;;4.45;100.00;98247.40;109573;1251;60349;-72
2023/12/20 05:40:45;;;;;;;6.50;5.90;;;;;;;4.43;100.00;98248.25;109566;1251;64913;-72
2023/12/20 05:43:12;;;;;;;7.10;6.10;;;;;;;4.40;100.00;98252.06;109544;1251;59745;-72
2023/12/20 05:45:38;;;;;;;10.70;7.30;;;;;;;4.38;100.00;98255.52;109594;1251;59806;-73
2023/12/20 05:48:05;;;;;;;9.00;7.10;;;;;;;4.38;100.00;98254.11;109584;1251;68068;-72
2023/12/20 05:50:32;;;;;;;10.00;7.90;;;;;;;4.38;100.00;98257.77;109567;1251;60209;-72
2023/12/20 05:52:58;;;;;;;10.20;7.00;;;;;;;4.38;100.00;98257.64;109575;1251;64068;-72
2023/12/20 05:55:25;;;;;;;8.20;7.00;;;;;;;4.37;100.00;98255.73;109574;1251;59839;-72
2023/12/20 05:57:52;;;;;;;9.00;8.10;;;;;;;4.37;100.00;98256.96;109611;1251;59832;-72
2023/12/20 06:00:19;;;;;;;10.60;8.90;;;;;;;4.38;100.00;98261.30;109577;1251;66742;-72
2023/12/20 06:02:45;;;;;;;11.00;9.90;;;;;;;4.39;100.00;98263.39;109222;1251;61115;-73
2023/12/20 06:05:12;;;;;;;10.10;9.10;;;;;;;4.39;100.00;98261.45;109614;1251;65185;-74
2023/12/20 06:07:38;;;;;;;12.80;10.30;;;;;;;4.39;100.00;98259.34;109574;1251;59928;-73
2023/12/20 06:10:06;;;;;;;12.10;10.20;;;;;;;4.39;100.00;98263.18;109238;1251;60223;-73
2023/12/20 06:12:35;;;;;;;11.00;9.60;;;;;;;4.39;100.00;98266.17;109572;1251;66649;-73
2023/12/20 06:15:03;;;;;;;9.80;8.40;;;;;;;4.37;100.00;98269.49;109568;1251;60776;-73
2023/12/20 06:17:31;;;;;;;10.90;8.10;;;;;;;4.34;100.00;98267.16;109413;1251;64058;-73
2023/12/20 06:19:57;;;;;;;10.70;8.00;;;;;;;4.32;100.00;98269.91;109600;1251;59783;-73
2023/12/20 06:22:24;;;;;;;9.90;8.10;;;;;;;4.32;100.00;98269.55;109550;1251;60559;-73
2023/12/20 06:24:50;;;;;;;11.70;9.00;;;;;;;4.30;100.00;98267.89;109579;1251;66978;-73
2023/12/20 06:27:17;;;;;;;12.90;9.30;;;;;;;4.28;100.00;98269.76;109549;1251;60222;-73
2023/12/20 06:29:44;;;;;;;10.50;8.80;;;;;;;4.27;100.00;98267.19;109516;1251;65051;-74
2023/12/20 06:32:11;;;;;;;11.50;8.80;;;;;;;4.26;100.00;98264.11;109553;1251;59825;-72
2023/12/20 06:34:38;;;;;;;10.20;9.10;;;;;;;4.24;100.00;98270.52;109572;1251;59804;-73
2023/12/20 06:37:05;;;;;;;12.30;9.30;;;;;;;4.23;100.00;98274.06;109590;1251;66873;-73
2023/12/20 06:39:33;;;;;;;11.20;10.10;;;;;;;4.22;100.00;98273.98;109567;1251;60735;-72
2023/12/20 06:42:00;;;;;;;11.90;9.80;;;;;;;4.21;100.00;98273.48;109552;1251;63715;-72
2023/12/20 06:44:27;;;;;;;9.60;8.60;;;;;;;4.21;100.00;98281.23;109590;1251;59800;-72
2023/12/20 06:46:53;;;;;;;10.40;9.00;;;;;;;4.21;100.00;98288.29;109596;1251;59824;-73
2023/12/20 06:49:20;;;;;;;11.00;9.20;;;;;;;4.20;100.00;98292.19;109592;1251;66963;-73
2023/12/20 06:51:46;;;;;;;9.30;7.90;;;;;;;4.18;100.00;98293.69;109631;1251;61089;-74
2023/12/20 06:54:13;;;;;;;10.50;8.70;;;;;;;4.18;100.00;98294.38;109589;1251;64225;-73
2023/12/20 06:56:41;;;;;;;11.80;9.20;;;;;;;4.19;100.00;98295.39;109554;1251;59840;-73
2023/12/20 06:59:07;;;;;;;11.10;9.70;;;;;;;4.19;100.00;98296.80;109571;1255;59906;-73
2023/12/20 07:01:34;;;;;;;11.80;10.70;;;;;;;4.20;100.00;98300.27;109280;1251;66898;-72
2023/12/20 07:04:00;;;;;;;10.90;9.70;;;;;;;4.21;100.00;98311.32;109528;1250;60935;-72
2023/12/20 07:06:27;;;;;;;12.00;9.70;;;;;;;4.20;100.00;98312.04;109580;1251;63542;-72
2023/12/20 07:08:53;;;;;;;12.10;10.90;;;;;;;4.21;100.00;98314.30;109558;1251;60228;-72
2023/12/20 07:11:20;;;;;;;13.40;11.70;;;;;;;4.21;100.00;98314.27;109605;1251;59815;-72
2023/12/20 07:13:46;;;;;;;16.00;12.90;;;;;;;4.20;100.00;98313.98;109591;1251;66754;-72
2023/12/20 07:16:13;;;;;;;14.00;12.60;;;;;;;4.19;100.00;98312.64;109615;1253;59779;-72
2023/12/20 07:18:39;;;;;;;13.90;12.40;;;;;;;4.17;100.00;98307.27;108841;1251;1003076;-72
2023/12/20 07:21:07;;;;;;;13.90;12.10;;;;;;;4.15;100.00;98306.33;109550;1251;59858;-72
2023/12/20 07:23:34;;;;;;;15.30;12.20;;;;;;;4.15;100.00;98305.07;109599;1251;59702;-73
2023/12/20 07:26:00;;;;;;;14.10;10.90;;;;;;;4.16;100.00;98309.08;109552;1251;66938;-73
2023/12/20 07:28:27;;;;;;;14.40;11.40;;;;;;;4.17;100.00;98307.80;109632;1251;60086;-71
2023/12/20 07:30:54;;;;;;;13.60;11.40;;;;;;;4.17;100.00;98306.58;109525;1251;65065;-73
2023/12/20 07:33:21;;;;;;;13.60;12.10;;;;;;;4.16;100.00;98308.04;109544;1251;59791;-73
2023/12/20 07:35:48;;;;;;;14.30;11.20;;;;;;;4.16;100.00;98312.59;109582;1251;60680;-72
2023/12/20 07:38:14;;;;;;;15.80;13.70;;;;;;;4.16;100.00;98315.94;109564;1251;66678;-73
2023/12/20 07:40:41;;;;;;;17.80;12.70;;;;;;;4.18;100.00;98317.59;109596;1251;60806;-73
2023/12/20 07:43:08;;;;;;;15.10;12.10;;;;;;;4.18;100.00;98318.83;109566;1251;65043;-73
2023/12/20 07:45:35;;;;;;;17.10;15.30;;;;;;;4.17;100.00;98324.48;109243;1251;59820;-73
2023/12/20 07:48:02;;;;;;;15.10;12.70;;;;;;;4.17;100.00;98320.11;109629;1251;59823;-73
2023/12/20 07:50:28;;;;;;;15.50;13.10;;;;;;;4.17;100.00;98320.29;109624;1251;66769;-73
2023/12/20 07:52:55;;;;;;;15.40;12.80;;;;;;;4.16;100.00;98321.38;109594;1251;60981;-73
2023/12/20 07:55:22;;;;;;;13.60;11.50;;;;;;;4.16;100.00;98320.17;109588;1251;65211;-73
2023/12/20 07:57:49;;;;;;;13.30;10.90;;;;;;;4.14;100.00;98319.38;109588;1251;59843;-73
2023/12/20 08:00:16;;;;;;;13.70;11.80;;;;;;;4.13;100.00;98323.14;109548;1251;59898;-73
2023/12/20 08:02:42;;;;;;;15.10;12.20;;;;;;;4.11;100.00;98326.73;109583;1250;67873;-72
2023/12/20 08:05:09;;;;;;;13.60;11.90;;;;;;;4.10;100.00;98327.14;109613;1251;61112;-72
2023/12/20 08:07:36;;;;;;;15.30;12.10;;;;;;;4.10;100.00;98329.29;109600;1251;64820;-72
2023/12/20 08:10:03;;;;;;;14.70;11.80;;;;;;;4.08;100.00;98326.89;109534;1251;59819;-72
2023/12/20 08:12:29;;;;;;;14.10;12.30;;;;;;;4.07;100.00;98326.60;109409;1251;59857;-72
2023/12/20 08:14:57;;;;;;;13.10;11.70;;;;;;;4.06;100.00;98329.63;109519;1251;68006;-73
2023/12/20 08:17:23;;;;;;;15.20;12.60;;;;;;;4.06;100.00;98326.48;109555;1251;61055;-72
2023/12/20 08:19:50;;;;;;;15.00;12.90;;;;;;;4.05;100.00;98324.61;109592;1251;64210;-72
2023/12/20 08:22:17;;;;;;;17.60;13.70;;;;;;;4.05;100.00;98325.12;109250;1250;60063;-72
2023/12/20 08:24:43;;;;;;;15.20;13.50;;;;;;;4.06;100.00;98322.80;109601;1251;59827;-72
2023/12/20 08:27:10;;;;;;;19.10;15.30;;;;;;;4.07;100.00;98321.48;109563;1251;67810;-72
2023/12/20 08:29:37;;;;;;;15.70;12.50;;;;;;;4.09;100.00;98320.54;109626;1250;60113;-72
2023/12/20 08:32:04;;;;;;;14.90;12.20;;;;;;;4.09;100.00;98315.98;109565;1251;65161;-72
2023/12/20 08:34:31;;;;;;;16.30;13.00;;;;;;;4.09;100.00;98320.14;109561;1251;59753;-72
2023/12/20 08:36:57;;;;;;;15.20;13.60;;;;;;;4.10;100.00;98318.73;109526;1251;59987;-72
2023/12/20 08:39:24;;;;;;;16.40;12.60;;;;;;;4.11;100.00;98313.20;109614;1251;67860;-72
2023/12/20 08:41:50;;;;;;;15.40;12.60;;;;;;;4.11;100.00;98314.63;109548;1251;61042;-72
2023/12/20 08:44:17;;;;;;;15.70;12.70;;;;;;;4.10;100.00;98313.59;109572;1251;65151;-72
2023/12/20 08:46:44;;;;;;;13.40;11.80;;;;;;;4.11;100.00;98312.84;109594;1251;59844;-72
2023/12/20 08:49:10;;;;;;;15.90;12.70;;;;;;;4.10;100.00;98317.64;109361;1251;59847;-72
2023/12/20 08:51:40;;;;;;;15.10;12.60;;;;;;;4.09;100.00;98315.24;109573;1251;66729;-72
2023/12/20 08:54:07;;;;;;;15.60;13.00;;;;;;;4.09;100.00;98315.59;109589;1251;60006;-71
2023/12/20 08:56:34;;;;;;;13.90;12.30;;;;;;;4.09;100.00;98318.92;109538;1251;65102;-73
2023/12/20 08:59:01;;;;;;;14.60;12.60;;;;;;;4.11;100.00;98320.58;109587;1251;60197;-72
2023/12/20 09:01:28;;;;;;;14.90;13.40;;;;;;;4.13;100.00;98320.66;109539;1251;60137;-72
2023/12/20 09:03:54;;;;;;;12.30;10.80;;;;;;;4.14;100.00;98322.36;109565;1251;67812;-73
2023/12/20 09:06:21;;;;;;;13.10;11.40;;;;;;;4.17;100.00;98326.23;109611;1251;60222;-73
2023/12/20 09:08:47;;;;;;;12.70;11.50;;;;;;;4.20;100.00;98326.14;109558;1251;65155;-72
2023/12/20 09:11:14;;;;;;;14.20;11.80;;;;;;;4.23;100.00;98324.05;109530;1251;59824;-73
2023/12/20 09:13:41;;;;;;;13.00;11.60;;;;;;;4.24;100.00;98327.50;109378;1251;59803;-72
2023/12/20 09:16:08;;;;;;;13.20;11.10;;;;;;;4.23;100.00;98326.83;109533;1251;67867;-71
2023/12/20 09:18:35;;;;;;;11.20;9.70;;;;;;;4.23;100.00;98328.63;109566;1251;60113;-72
2023/12/20 09:21:02;;;;;;;10.80;9.70;;;;;;;4.21;100.00;98328.50;109590;1251;63694;-72
2023/12/20 09:23:28;;;;;;;10.40;9.20;;;;;;;4.20;100.00;98325.06;109567;1251;59838;-72
2023/12/20 09:25:55;;;;;;;11.30;9.40;;;;;;;4.18;100.00;98326.70;109539;1251;59839;-72
2023/12/20 09:28:21;;;;;;;11.10;9.50;;;;;;;4.18;100.00;98326.17;109579;1251;67745;-74
2023/12/20 09:30:48;;;;;;;12.50;9.50;;;;;;;4.17;100.00;98321.17;109548;1251;61040;-73
2023/12/20 09:33:16;;;;;;;9.50;8.50;;;;;;;4.15;100.00;98320.73;109609;1251;65134;-73
2023/12/20 09:35:42;;;;;;;10.70;9.00;;;;;;;4.15;100.00;98321.10;109558;1251;59873;-73
2023/12/20 09:38:09;;;;;;;12.20;8.60;;;;;;;4.15;100.00;98321.98;108040;1251;1003079;-72
2023/12/20 09:40:40;;;;;;;10.30;9.20;;;;;;;4.14;100.00;98319.75;109550;1251;66786;-72
2023/12/20 09:43:14;;;;;;;10.80;9.50;;;;;;;4.13;100.00;98317.15;109563;1251;61076;-73
2023/12/20 09:45:41;;;;;;;10.40;8.60;;;;;;;4.13;100.00;98313.48;109512;1251;64017;-73
2023/12/20 09:48:10;;;;;;;9.60;8.70;;;;;;;4.14;100.00;98309.87;109580;1251;59757;-73
2023/12/20 09:50:37;;;;;;;9.60;7.10;;;;;;;4.16;100.00;98306.09;109569;1251;59841;-73
2023/12/20 09:53:05;;;;;;;10.40;8.00;;;;;;;4.17;100.00;98300.04;109570;1250;67853;-73
2023/12/20 09:55:33;;;;;;;10.90;8.20;;;;;;;4.18;100.00;98300.69;109563;1250;61009;-73
2023/12/20 09:58:00;;;;;;;10.00;7.50;;;;;;;4.20;100.00;98294.32;109564;1251;64991;-73
2023/12/20 10:00:27;;;;;;;9.80;8.80;;;;;;;4.22;100.00;98291.38;109570;1255;59702;-72
2023/12/20 10:02:57;;;;;;;10.30;8.70;;;;;;;4.24;100.00;98289.66;109558;1251;59760;-74
2023/12/20 10:05:29;;;;;;;9.80;7.60;;;;;;;4.27;100.00;98286.71;109589;1251;67920;-72
2023/12/20 10:07:56;;;;;;;9.40;7.50;;;;;;;4.30;100.00;98287.27;109583;1251;60225;-73
2023/12/20 10:10:23;;;;;;;9.50;7.30;;;;;;;4.33;100.00;98284.09;109556;1251;65055;-72
2023/12/20 10:13:07;;;;;;;8.60;7.70;;;;;;;4.36;100.00;98282.52;109530;1251;59799;-72
2023/12/20 10:15:34;;;;;;;7.60;6.80;;;;;;;4.39;100.00;98284.13;109617;1251;59907;-72
2023/12/20 10:18:02;;;;;;;8.30;7.00;;;;;;;4.42;100.00;98286.64;109542;1251;67842;-73
2023/12/20 10:20:30;;;;;;;8.50;7.50;;;;;;;4.44;100.00;98282.84;109620;1251;60259;-72
2023/12/20 10:22:58;;;;;;;8.70;7.80;;;;;;;4.45;100.00;98281.36;109533;1251;64021;-72
2023/12/20 10:25:25;;;;;;;8.00;7.20;;;;;;;4.48;100.00;98280.30;109562;1251;59796;-72
2023/12/20 10:28:12;;;;;;;9.30;7.10;;;;;;;4.51;100.00;98278.42;109533;1251;59818;-72
2023/12/20 10:30:40;;;;;;;7.90;6.90;;;;;;;4.51;100.00;98278.56;109546;1251;67798;-72
2023/12/20 10:33:10;;;;;;;7.80;7.00;;;;;;;4.52;100.00;98277.30;109581;1251;61075;-72
2023/12/20 10:35:38;;;;;;;8.40;7.60;;;;;;;4.54;100.00;98278.07;109546;1251;65166;-73
2023/12/20 10:38:06;;;;;;;9.00;8.10;;;;;;;4.54;100.00;98282.27;109528;1253;59846;-73
2023/12/20 10:40:36;;;;;;;8.70;7.60;;;;;;;4.56;100.00;98280.24;109572;1251;59728;-71
2023/12/20 10:43:04;;;;;;;7.60;6.80;;;;;;;4.57;100.00;98276.48;109590;1251;67857;-72
2023/12/20 10:45:30;;;;;;;8.20;7.40;;;;;;;4.58;100.00;98277.48;109543;1254;61449;-72
2023/12/20 10:47:59;;;;;;;8.00;7.20;;;;;;;4.58;100.00;98284.33;109581;1251;65270;-73
2023/12/20 10:50:28;;;;;;;8.10;7.30;;;;;;;4.59;100.00;98286.79;109561;1251;60067;-73
2023/12/20 10:52:55;;;;;;;7.90;6.90;;;;;;;4.58;100.00;98284.36;109261;1256;59948;-72
2023/12/20 10:55:25;;;;;;;8.40;6.90;;;;;;;4.57;100.00;98280.70;109299;1256;67629;-73
2023/12/20 10:57:54;;;;;;;;;;;;;;;4.57;100.00;98281.41;109259;1256;61050;-73
2023/12/20 11:00:23;;;;;;;8.20;7.20;;;;;;;4.55;100.00;98279.23;109241;1257;64027;-73
2023/12/20 11:02:50;;;;;;;9.00;7.70;;;;;;;4.54;100.00;98279.67;109228;1257;59818;-73
2023/12/20 11:05:27;;;;;;;8.00;7.20;;;;;;;4.55;100.00;98282.06;109272;1257;59949;-73
2023/12/20 11:08:08;;;;;;;9.20;7.20;;;;;;;4.58;100.00;98286.30;109237;1257;67966;-73
2023/12/20 11:10:51;;;;;;;8.90;7.20;;;;;;;4.59;100.00;98285.17;109273;1255;60980;-73
2023/12/20 11:13:31;;;;;;;8.30;7.40;;;;;;;4.59;100.00;98283.77;109046;1255;65114;-73
2023/12/20 11:15:59;;;;;;;7.10;6.40;;;;;;;4.61;100.00;98282.27;109239;1256;59889;-72
2023/12/20 11:18:30;;;;;;;7.40;6.70;;;;;;;4.60;100.00;98286.35;109258;1257;60015;-73
2023/12/20 11:21:05;;;;;;;8.70;7.40;;;;;;;4.59;100.00;98287.11;109252;1256;67863;-73
2023/12/20 11:23:35;;;;;;;7.30;6.00;;;;;;;4.59;100.00;98285.89;109083;1251;60867;-73